createdAt,value
2023-02-21T00:02:06.495Z,101802.34
2023-02-21T00:04:52.630Z,101790.28
2023-02-21T00:07:40.152Z,101799.78
2023-02-21T00:10:28.104Z,101798.00
2023-02-21T00:13:13.761Z,101795.47
2023-02-21T00:15:59.500Z,101794.63
2023-02-21T00:18:46.726Z,101783.41
2023-02-21T00:21:32.194Z,101786.88
2023-02-21T00:24:17.512Z,101785.97
2023-02-21T00:27:03.154Z,101785.97
2023-02-21T00:29:48.948Z,101778.25
2023-02-21T00:32:37.609Z,101775.66
2023-02-21T00:35:24.880Z,101780.84
2023-02-21T00:38:10.760Z,101776.59
2023-02-21T00:40:56.780Z,101780.03
2023-02-21T00:43:47.311Z,101776.63
2023-02-21T00:46:32.674Z,101768.91
2023-02-21T00:49:17.850Z,101779.28
2023-02-21T00:52:04.819Z,101773.25
2023-02-21T00:54:50.851Z,101771.56
2023-02-21T00:57:36.829Z,101770.66
2023-02-21T01:00:23.440Z,101768.06
2023-02-21T01:03:08.715Z,101758.66
2023-02-21T01:05:54.011Z,101758.56
2023-02-21T01:08:40.933Z,101753.41
2023-02-21T01:11:32.773Z,101755.19
2023-02-21T01:14:18.197Z,101750.84
2023-02-21T01:17:12.387Z,101745.69
2023-02-21T01:19:58.999Z,101744.84
2023-02-21T01:22:44.854Z,101745.69
2023-02-21T01:25:31.830Z,101743.91
2023-02-21T01:28:19.703Z,101743.09
2023-02-21T01:31:07.831Z,101733.59
2023-02-21T01:33:56.941Z,101729.34
2023-02-21T01:36:42.447Z,101723.34
2023-02-21T01:39:28.781Z,101719.00
2023-02-21T01:42:16.847Z,101724.22
2023-02-21T01:45:04.349Z,101715.66
2023-02-21T01:47:50.097Z,101712.28
2023-02-21T01:50:40.210Z,101708.94
2023-02-21T01:53:31.910Z,101714.97
2023-02-21T01:56:20.128Z,101718.44
2023-02-21T01:59:09.990Z,101715.84
2023-02-21T02:02:03.873Z,101717.59
2023-02-21T02:04:52.966Z,101714.19
2023-02-21T02:07:39.822Z,101716.78
2023-02-21T02:10:28.065Z,101703.84
2023-02-21T02:13:22.294Z,101705.53
2023-02-21T02:16:00.650Z,101702.13
2023-02-21T02:18:47.847Z,101695.22
2023-02-21T02:21:43.954Z,101708.09
2023-02-21T02:24:33.051Z,101708.94
2023-02-21T02:27:38.987Z,101701.16
2023-02-21T02:30:36.726Z,101694.28
2023-02-21T02:33:40.500Z,101692.59
2023-02-21T02:36:15.186Z,101683.09
2023-02-21T02:38:54.693Z,101691.69
2023-02-21T02:41:28.973Z,101686.53
2023-02-21T02:44:02.389Z,101689.09
2023-02-21T02:46:33.274Z,101684.84
2023-02-21T02:49:06.303Z,101686.63
2023-02-21T02:51:37.260Z,101685.72
2023-02-21T02:54:06.051Z,101671.94
2023-02-21T02:56:36.984Z,101669.38
2023-02-21T02:59:10.153Z,101673.63
2023-02-21T03:01:54.531Z,101664.97
2023-02-21T03:04:42.236Z,101661.50
2023-02-21T03:07:19.187Z,101661.50
2023-02-21T03:09:57.235Z,101664.06
2023-02-21T03:12:36.141Z,101660.59
2023-02-21T03:15:09.178Z,101663.19
2023-02-21T03:17:43.976Z,101660.53
2023-02-21T03:20:15.573Z,101653.69
2023-02-21T03:22:47.549Z,101660.53
2023-02-21T03:25:17.713Z,101650.22
2023-02-21T03:27:45.764Z,101644.19
2023-02-21T03:30:15.966Z,101645.06
2023-02-21T03:32:46.728Z,101649.34
2023-02-21T03:35:15.787Z,101640.72
2023-02-21T03:37:47.140Z,101635.53
2023-02-21T03:40:17.743Z,101633.75
2023-02-21T03:42:46.347Z,101625.97
2023-02-21T03:45:14.361Z,101623.44
2023-02-21T03:47:42.364Z,101624.34
2023-02-21T03:50:10.797Z,101620.91
2023-02-21T03:52:38.861Z,101615.75
2023-02-21T03:55:10.003Z,101620.09
2023-02-21T03:57:38.337Z,101619.22
2023-02-21T04:00:08.513Z,101621.78
2023-02-21T04:02:36.317Z,101617.56
2023-02-21T04:05:05.054Z,101618.41
2023-02-21T04:07:33.260Z,101608.06
2023-02-21T04:10:01.570Z,101603.69
2023-02-21T04:12:33.695Z,101597.66
2023-02-21T04:15:01.703Z,101587.28
2023-02-21T04:17:30.051Z,101597.59
2023-02-21T04:19:58.090Z,101592.38
2023-02-21T04:22:29.063Z,101593.28
2023-02-21T04:24:58.021Z,101576.91
2023-02-21T04:27:27.164Z,101578.63
2023-02-21T04:29:57.949Z,101574.28
2023-02-21T04:32:26.160Z,101575.09
2023-02-21T04:34:54.448Z,101562.19
2023-02-21T04:37:22.522Z,101568.19
2023-02-21T04:39:50.858Z,101562.19
2023-02-21T04:42:18.949Z,101556.97
2023-02-21T04:44:59.361Z,101565.53
2023-02-21T04:47:31.211Z,101568.81
2023-02-21T04:50:01.021Z,101563.66
2023-02-21T04:52:30.476Z,101560.22
2023-02-21T04:54:58.585Z,101565.41
2023-02-21T04:57:27.039Z,101559.34
2023-02-21T05:00:02.056Z,101555.88
2023-02-21T05:02:31.924Z,101552.44
2023-02-21T05:05:00.098Z,101552.38
2023-02-21T05:07:28.227Z,101546.34
2023-02-21T05:09:56.279Z,101547.16
2023-02-21T05:12:24.525Z,101548.81
2023-02-21T05:14:52.580Z,101550.47
2023-02-21T05:17:20.695Z,101553.91
2023-02-21T05:19:50.234Z,101550.44
2023-02-21T05:22:20.698Z,101550.44
2023-02-21T05:24:50.552Z,101549.56
2023-02-21T05:27:19.880Z,101541.84
2023-02-21T05:29:49.658Z,101545.25
2023-02-21T05:32:18.930Z,101544.31
2023-02-21T05:34:48.008Z,101539.94
2023-02-21T05:37:21.312Z,101533.69
2023-02-21T05:39:49.635Z,101532.72
2023-02-21T05:42:18.492Z,101531.75
2023-02-21T05:44:47.016Z,101533.38
2023-02-21T05:47:16.715Z,101527.31
2023-02-21T05:49:45.705Z,101530.78
2023-02-21T05:52:15.148Z,101519.56
2023-02-21T05:54:46.130Z,101521.25
2023-02-21T05:57:14.353Z,101520.34
2023-02-21T05:59:42.689Z,101512.69
2023-02-21T06:02:10.755Z,101524.66
2023-02-21T06:04:39.011Z,101516.88
2023-02-21T06:07:07.122Z,101523.75
2023-02-21T06:09:36.460Z,101515.97
2023-02-21T06:12:06.301Z,101509.06
2023-02-21T06:14:34.612Z,101516.75
2023-02-21T06:17:03.361Z,101510.72
2023-02-21T06:19:33.316Z,101509.00
2023-02-21T06:22:01.209Z,101508.06
2023-02-21T06:24:29.305Z,101508.88
2023-02-21T06:26:58.768Z,101507.94
2023-02-21T06:29:29.716Z,101502.63
2023-02-21T06:31:58.929Z,101497.41
2023-02-21T06:34:27.041Z,101499.03
2023-02-21T06:36:55.882Z,101494.72
2023-02-21T06:39:24.151Z,101494.66
2023-02-21T06:41:53.549Z,101493.72
2023-02-21T06:44:21.639Z,101489.41
2023-02-21T06:46:51.905Z,101491.00
2023-02-21T06:49:20.076Z,101494.34
2023-02-21T06:51:49.636Z,101494.44
2023-02-21T06:54:18.467Z,101497.13
2023-02-21T06:56:46.654Z,101495.53
2023-02-21T06:59:14.859Z,101496.50
2023-02-21T07:01:43.114Z,101492.31
2023-02-21T07:04:13.125Z,101484.66
2023-02-21T07:06:41.825Z,101485.56
2023-02-21T07:09:10.145Z,101482.16
2023-02-21T07:11:38.317Z,101492.53
2023-02-21T07:14:06.743Z,101487.41
2023-02-21T07:16:34.998Z,101482.25
2023-02-21T07:19:03.208Z,101486.50
2023-02-21T07:21:33.414Z,101486.50
2023-02-21T07:24:01.252Z,101483.09
2023-02-21T07:26:29.320Z,101484.84
2023-02-21T07:28:57.683Z,101491.66
2023-02-21T07:31:26.146Z,101483.88
2023-02-21T07:33:54.508Z,101482.09
2023-02-21T07:36:23.001Z,101483.78
2023-02-21T07:38:52.518Z,101484.66
2023-02-21T07:41:20.639Z,101475.22
2023-02-21T07:43:48.991Z,101483.00
2023-02-21T07:46:20.437Z,101481.34
2023-02-21T07:48:48.918Z,101481.34
2023-02-21T07:51:18.411Z,101472.78
2023-02-21T07:53:47.532Z,101478.88
2023-02-21T07:56:17.096Z,101471.19
2023-02-21T07:58:48.908Z,101476.34
2023-02-21T08:01:19.730Z,101476.38
2023-02-21T08:03:48.071Z,101481.66
2023-02-21T08:06:16.525Z,101477.44
2023-02-21T08:08:45.879Z,101471.44
2023-02-21T08:11:14.656Z,101477.50
2023-02-21T08:13:44.450Z,101473.38
2023-02-21T08:16:12.615Z,101480.44
2023-02-21T08:18:43.336Z,101476.97
2023-02-21T08:21:12.124Z,101470.97
2023-02-21T08:23:41.870Z,101466.56
2023-02-21T08:26:11.932Z,101469.13
2023-02-21T08:28:42.674Z,101461.41
2023-02-21T08:31:12.591Z,101470.00
2023-02-21T08:33:41.203Z,101467.56
2023-02-21T08:37:22.359Z,101461.78
2023-02-21T08:40:57.534Z,101461.16
2023-02-21T08:43:12.848Z,101459.47
2023-02-21T08:45:42.389Z,101459.31
2023-02-21T08:49:17.492Z,101454.81
2023-02-21T08:51:19.959Z,101463.38
2023-02-21T08:54:00.013Z,101465.81
2023-02-21T08:56:55.524Z,101458.00
2023-02-21T08:59:35.858Z,101458.00
2023-02-21T09:44:05.458Z,101451.34
2023-02-21T09:46:37.675Z,101440.00
2023-02-21T09:49:14.364Z,101440.94
2023-02-21T09:52:17.258Z,101428.72
2023-02-21T09:54:59.674Z,101436.63
2023-02-21T09:57:30.223Z,101429.50
2023-02-21T10:00:01.522Z,101426.91
2023-02-21T10:02:45.334Z,101424.41
2023-02-21T10:05:24.426Z,101409.94
2023-02-21T10:08:01.987Z,101417.47
2023-02-21T10:10:35.572Z,101408.53
2023-02-21T10:13:12.776Z,101404.78
2023-02-21T10:15:51.284Z,101403.78
2023-02-21T10:18:29.559Z,101404.44
2023-02-21T10:21:01.774Z,101394.06
2023-02-21T10:23:46.842Z,101395.06
2023-02-21T10:26:19.774Z,101397.88
2023-02-21T10:28:48.269Z,101385.41
2023-02-21T10:31:22.959Z,101390.22
2023-02-21T10:33:51.698Z,101385.03
2023-02-21T10:36:23.774Z,101383.19
2023-02-21T10:38:58.262Z,101383.06
2023-02-21T10:41:31.430Z,101377.75
2023-02-21T10:44:03.387Z,101378.72
2023-02-21T10:46:40.544Z,101380.44
2023-02-21T10:49:29.230Z,101373.56
2023-02-21T10:52:12.123Z,101365.16
2023-02-21T10:54:41.104Z,101369.72
2023-02-21T10:57:12.948Z,101367.41
2023-02-21T10:59:45.579Z,101373.75
2023-02-21T11:02:33.670Z,101364.50
2023-02-21T11:05:15.852Z,101362.94
2023-02-21T11:07:56.789Z,101357.06
2023-02-21T11:10:34.164Z,101361.50
2023-02-21T11:13:08.588Z,101359.22
2023-02-21T11:15:38.685Z,101355.88
2023-02-21T11:18:16.049Z,101353.31
2023-02-21T11:20:45.105Z,101349.97
2023-02-21T11:23:31.677Z,101349.59
2023-02-21T11:26:07.874Z,101343.31
2023-02-21T11:28:39.910Z,101338.47
2023-02-21T11:31:17.162Z,101329.28
2023-02-21T11:33:57.222Z,101338.69
2023-02-21T11:36:30.251Z,101334.16
2023-02-21T11:39:04.981Z,101325.44
2023-02-21T11:41:40.833Z,101325.59
2023-02-21T11:44:26.668Z,101319.25
2023-02-21T11:47:02.675Z,101320.00
2023-02-21T11:49:41.038Z,101313.81
2023-02-21T11:52:15.055Z,101305.03
2023-02-21T11:54:45.070Z,101309.47
2023-02-21T11:57:23.628Z,101302.94
2023-02-21T12:00:08.758Z,101294.75
2023-02-21T12:03:06.216Z,101301.75
2023-02-21T12:05:49.229Z,101292.16
2023-02-21T12:08:37.013Z,101289.50
2023-02-21T12:11:18.110Z,101277.25
2023-02-21T12:14:01.221Z,101277.97
2023-02-21T12:16:43.470Z,101266.75
2023-02-21T12:19:37.151Z,101265.88
2023-02-21T12:22:19.227Z,101269.41
2023-02-21T12:24:57.680Z,101268.81
2023-02-21T12:27:35.606Z,101262.91
2023-02-21T12:30:19.528Z,101255.97
2023-02-21T12:32:52.846Z,101251.63
2023-02-21T12:36:20.805Z,101248.19
2023-02-21T12:39:17.923Z,101242.31
2023-02-21T12:42:07.816Z,101239.75
2023-02-21T12:44:51.302Z,101244.22
2023-02-21T12:47:25.873Z,101230.53
2023-02-21T12:50:02.512Z,101229.09
2023-02-21T12:52:36.310Z,101226.66
2023-02-21T12:55:20.375Z,101208.59
2023-02-21T13:02:46.514Z,101207.94
2023-02-21T13:14:17.067Z,101195.09
2023-02-21T15:56:51.051Z,101019.84
2023-02-21T15:59:55.032Z,101013.72
2023-02-21T16:02:41.769Z,101023.13
2023-02-21T16:05:43.959Z,101025.59
2023-02-21T16:08:39.039Z,101017.84
2023-02-21T16:11:10.481Z,100997.13
2023-02-21T16:14:00.107Z,100996.31
2023-02-21T16:16:36.912Z,100995.47
2023-02-21T16:19:05.669Z,100996.31
2023-02-21T16:21:34.059Z,100980.66
2023-02-21T16:24:18.987Z,100988.41
2023-02-21T16:27:04.467Z,100988.31
2023-02-21T16:29:33.871Z,100972.69
2023-02-21T16:32:04.378Z,100967.44
2023-02-21T16:34:36.311Z,100962.16
2023-02-21T16:37:08.105Z,100957.72
2023-02-21T16:39:36.381Z,100951.56
2023-02-21T16:42:05.835Z,100948.94
2023-02-21T16:44:34.279Z,100948.94
2023-02-21T16:47:04.410Z,100946.31
2023-02-21T16:49:32.373Z,100937.56
2023-02-21T16:52:00.817Z,100943.53
2023-02-21T16:54:28.994Z,100943.41
2023-02-21T16:56:57.242Z,100939.88
2023-02-21T16:59:31.975Z,100938.94
2023-02-21T17:02:03.623Z,100946.56
2023-02-21T17:04:34.075Z,100943.91
2023-02-21T17:07:09.608Z,100961.03
2023-02-21T17:09:40.982Z,100953.13
2023-02-21T17:12:13.880Z,100953.88
2023-02-21T17:15:30.554Z,100955.44
2023-02-21T17:17:58.918Z,100957.00
2023-02-21T17:20:35.732Z,100955.19
2023-02-21T17:23:04.519Z,100953.38
2023-02-21T17:27:01.883Z,100956.78
2023-02-21T17:33:19.782Z,100960.03
2023-02-21T17:36:39.111Z,100955.66
2023-02-21T17:40:14.547Z,100954.72
2023-02-21T17:43:10.051Z,100958.09
2023-02-21T17:46:34.747Z,100960.63
2023-02-21T17:49:22.658Z,100959.72
2023-02-21T17:58:40.093Z,100953.56
2023-02-21T18:07:13.763Z,100949.13
2023-02-21T18:10:41.212Z,100944.75
2023-02-21T18:13:35.905Z,100943.84
2023-02-21T18:16:52.560Z,100955.00
2023-02-21T18:22:49.641Z,100951.47
2023-02-21T18:31:16.481Z,100951.44
2023-02-21T18:33:44.772Z,100954.91
2023-02-21T18:36:13.290Z,100947.13
2023-02-21T18:38:42.532Z,100947.09
2023-02-21T18:41:12.486Z,100945.38
2023-02-21T18:43:44.226Z,100941.06
2023-02-21T18:46:14.485Z,100938.41
2023-02-21T18:48:43.415Z,100940.97
2023-02-21T18:51:12.959Z,100937.50
2023-02-21T18:53:41.264Z,100940.00
2023-02-21T18:56:11.435Z,100942.56
2023-02-21T18:58:39.815Z,100943.38
2023-02-21T19:01:11.807Z,100941.66
2023-02-21T19:03:40.187Z,100936.34
2023-02-21T19:06:09.844Z,100935.41
2023-02-21T19:08:37.958Z,100936.25
2023-02-21T19:11:06.638Z,100927.59
2023-02-21T19:13:35.007Z,100926.81
2023-02-21T19:16:03.632Z,100920.75
2023-02-21T19:18:34.735Z,100913.84
2023-02-21T19:21:02.868Z,100910.31
2023-02-21T19:23:30.947Z,100912.84
2023-02-21T19:25:59.588Z,100903.34
2023-02-21T19:28:29.246Z,100909.38
2023-02-21T19:30:57.463Z,100904.16
2023-02-21T19:33:25.592Z,100891.16
2023-02-21T19:35:55.390Z,100887.72
2023-02-21T19:38:23.882Z,100884.25
2023-02-21T19:40:52.170Z,100873.91
2023-02-21T19:43:20.997Z,100887.56
2023-02-21T19:45:49.552Z,100882.38
2023-02-21T19:48:17.744Z,100881.47
2023-02-21T19:50:45.984Z,100876.19
2023-02-21T19:53:16.070Z,100875.19
2023-02-21T19:55:44.826Z,100868.22
2023-02-21T19:58:12.997Z,100868.19
2023-02-21T20:00:43.989Z,100862.97
2023-02-21T20:03:18.151Z,100868.19
2023-02-21T20:05:46.763Z,100865.69
2023-02-21T20:08:16.479Z,100858.84
2023-02-21T20:10:44.678Z,100861.34
2023-02-21T20:13:12.705Z,100864.78
2023-02-21T20:15:41.015Z,100865.59
2023-02-21T20:18:10.571Z,100864.69
2023-02-21T20:20:38.870Z,100865.53
2023-02-21T20:23:08.333Z,100869.81
2023-02-21T20:25:38.510Z,100860.31
2023-02-21T20:28:07.568Z,100866.31
2023-02-21T20:30:36.002Z,100862.91
2023-02-21T20:33:04.432Z,100857.75
2023-02-21T20:35:32.822Z,100853.44
2023-02-21T20:38:05.435Z,100849.94
2023-02-21T20:40:33.918Z,100855.16
2023-02-21T20:43:04.166Z,100849.09
2023-02-21T20:45:33.287Z,100851.63
2023-02-21T20:48:01.470Z,100846.41
2023-02-21T20:50:30.732Z,100857.47
2023-02-21T20:52:58.777Z,100857.31
2023-02-21T20:55:27.174Z,100859.88
2023-02-21T20:57:55.720Z,100862.47
2023-02-21T21:00:30.662Z,100853.97
2023-02-21T21:02:59.513Z,100855.75
2023-02-21T21:05:27.646Z,100851.50
2023-02-21T21:07:56.554Z,100863.50
2023-02-21T21:10:25.550Z,100850.59
2023-02-21T21:12:54.019Z,100847.19
2023-02-21T21:15:25.853Z,100854.09
2023-02-21T21:17:54.267Z,100857.50
2023-02-21T21:20:27.067Z,100860.91
2023-02-21T21:22:55.253Z,100860.88
2023-02-21T21:25:23.813Z,100850.56
2023-02-21T21:27:52.041Z,100848.81
2023-02-21T21:30:23.000Z,100855.72
2023-02-21T21:32:52.459Z,100853.97
2023-02-21T21:35:21.286Z,100841.91
2023-02-21T21:37:50.274Z,100848.75
2023-02-21T21:40:19.790Z,100855.66
2023-02-21T21:42:52.128Z,100864.19
2023-02-21T21:45:24.945Z,100858.13
2023-02-21T21:47:58.650Z,100855.53
2023-02-21T21:50:27.659Z,100857.16
2023-02-21T21:52:58.723Z,100852.75
2023-02-21T21:55:29.693Z,100849.25
2023-02-21T21:57:59.041Z,100852.59
2023-02-21T22:00:29.655Z,100847.41
2023-02-21T22:03:02.176Z,100844.81
2023-02-21T22:05:32.726Z,100847.31
2023-02-21T22:08:01.364Z,100844.72
2023-02-21T22:10:30.332Z,100840.31
2023-02-21T22:13:00.749Z,100843.72
2023-02-21T22:15:30.363Z,100846.28
2023-02-21T22:18:08.143Z,100843.66
2023-02-21T22:20:36.198Z,100841.13
2023-02-21T22:23:05.862Z,100841.03
2023-02-21T22:25:37.036Z,100832.38
2023-02-21T22:28:09.608Z,100825.44
2023-02-21T22:30:38.997Z,100835.75
2023-02-21T22:33:13.578Z,100840.00
2023-02-21T22:35:41.725Z,100844.25
2023-02-21T22:38:14.475Z,100839.03
2023-02-21T22:40:43.697Z,100844.94
2023-02-21T22:43:14.031Z,100842.34
2023-02-21T22:45:49.914Z,100840.50
2023-02-21T22:48:21.038Z,100838.63
2023-02-21T22:50:49.811Z,100851.41
2023-02-21T22:53:19.114Z,100849.56
2023-02-21T22:56:01.593Z,100833.16
2023-02-21T22:58:32.734Z,100844.16
2023-02-21T23:01:01.279Z,100836.31
2023-02-21T23:03:32.096Z,100835.34
2023-02-21T23:06:02.298Z,100836.03
2023-02-21T23:08:30.717Z,100829.91
2023-02-21T23:11:01.089Z,100829.03
2023-02-21T23:13:30.080Z,100836.72
2023-02-21T23:15:59.248Z,100839.22
2023-02-21T23:18:29.238Z,100834.88
2023-02-21T23:20:59.194Z,100839.00
2023-02-21T23:23:29.490Z,100838.91
2023-02-21T23:26:00.196Z,100838.03
2023-02-21T23:28:31.487Z,100838.75
2023-02-21T23:30:59.778Z,100837.00
2023-02-21T23:33:29.289Z,100834.41
2023-02-21T23:35:59.901Z,100834.28
2023-02-21T23:38:29.043Z,100839.44
2023-02-21T23:40:59.605Z,100829.84
2023-02-21T23:43:30.129Z,100838.50
2023-02-21T23:46:00.931Z,100834.13
2023-02-21T23:48:29.787Z,100839.19
2023-02-21T23:50:59.781Z,100838.25
2023-02-21T23:53:31.856Z,100840.69
2023-02-21T23:56:00.868Z,100832.94
2023-02-21T23:58:31.844Z,100837.19
